sensor_id;sensor_type;location;lat;lon;timestamp;P1;durP1;ratioP1;P2;durP2;ratioP2
13408;SDS011;6775;49.574;11.170;2024-01-15T00:01:03;29.17;;;13.10;;
13408;SDS011;6775;49.574;11.170;2024-01-15T00:03:31;38.10;;;14.27;;
13408;SDS011;6775;49.574;11.170;2024-01-15T00:06:00;34.20;;;13.40;;
13408;SDS011;6775;49.574;11.170;2024-01-15T00:08:28;33.07;;;12.73;;
13408;SDS011;6775;49.574;11.170;2024-01-15T00:10:56;32.03;;;13.10;;
13408;SDS011;6775;49.574;11.170;2024-01-15T00:13:24;28.77;;;12.10;;
13408;SDS011;6775;49.574;11.170;2024-01-15T00:15:52;30.27;;;11.83;;
13408;SDS011;6775;49.574;11.170;2024-01-15T00:18:22;26.33;;;9.77;;
13408;SDS011;6775;49.574;11.170;2024-01-15T00:20:50;27.17;;;10.97;;
13408;SDS011;6775;49.574;11.170;2024-01-15T00:23:18;25.40;;;9.93;;
13408;SDS011;6775;49.574;11.170;2024-01-15T00:25:47;22.47;;;10.23;;
13408;SDS011;6775;49.574;11.170;2024-01-15T00:28:15;27.43;;;10.50;;
13408;SDS011;6775;49.574;11.170;2024-01-15T00:30:43;26.33;;;11.50;;
13408;SDS011;6775;49.574;11.170;2024-01-15T00:33:11;24.83;;;10.77;;
13408;SDS011;6775;49.574;11.170;2024-01-15T00:35:42;26.63;;;10.27;;
13408;SDS011;6775;49.574;11.170;2024-01-15T00:38:10;22.83;;;10.40;;
13408;SDS011;6775;49.574;11.170;2024-01-15T00:40:39;27.63;;;11.53;;
13408;SDS011;6775;49.574;11.170;2024-01-15T00:43:07;22.80;;;9.97;;
13408;SDS011;6775;49.574;11.170;2024-01-15T00:45:35;29.87;;;11.83;;
13408;SDS011;6775;49.574;11.170;2024-01-15T00:48:03;29.60;;;11.40;;
13408;SDS011;6775;49.574;11.170;2024-01-15T00:50:32;27.63;;;11.10;;
13408;SDS011;6775;49.574;11.170;2024-01-15T00:53:02;23.57;;;11.17;;
13408;SDS011;6775;49.574;11.170;2024-01-15T00:55:31;19.90;;;9.47;;
13408;SDS011;6775;49.574;11.170;2024-01-15T00:57:59;31.10;;;10.73;;
13408;SDS011;6775;49.574;11.170;2024-01-15T01:00:27;25.37;;;11.80;;
13408;SDS011;6775;49.574;11.170;2024-01-15T01:02:55;30.27;;;11.47;;
13408;SDS011;6775;49.574;11.170;2024-01-15T01:05:23;26.87;;;10.50;;
13408;SDS011;6775;49.574;11.170;2024-01-15T01:07:51;30.13;;;12.83;;
13408;SDS011;6775;49.574;11.170;2024-01-15T01:10:21;26.30;;;10.23;;
13408;SDS011;6775;49.574;11.170;2024-01-15T01:12:49;26.67;;;9.97;;
13408;SDS011;6775;49.574;11.170;2024-01-15T01:15:17;34.20;;;11.47;;
13408;SDS011;6775;49.574;11.170;2024-01-15T01:17:46;26.47;;;10.90;;
13408;SDS011;6775;49.574;11.170;2024-01-15T01:20:14;28.17;;;11.30;;
13408;SDS011;6775;49.574;11.170;2024-01-15T01:22:44;24.37;;;10.43;;
13408;SDS011;6775;49.574;11.170;2024-01-15T01:25:12;26.40;;;11.23;;
13408;SDS011;6775;49.574;11.170;2024-01-15T01:27:42;22.40;;;10.40;;
13408;SDS011;6775;49.574;11.170;2024-01-15T01:30:11;24.43;;;11.47;;
13408;SDS011;6775;49.574;11.170;2024-01-15T01:32:39;26.77;;;10.97;;
13408;SDS011;6775;49.574;11.170;2024-01-15T01:35:07;29.30;;;11.77;;
13408;SDS011;6775;49.574;11.170;2024-01-15T01:37:36;26.33;;;9.87;;
13408;SDS011;6775;49.574;11.170;2024-01-15T01:40:04;29.87;;;11.20;;
13408;SDS011;6775;49.574;11.170;2024-01-15T01:42:34;26.83;;;10.50;;
13408;SDS011;6775;49.574;11.170;2024-01-15T01:45:04;24.37;;;11.00;;
13408;SDS011;6775;49.574;11.170;2024-01-15T01:47:33;25.67;;;11.30;;
13408;SDS011;6775;49.574;11.170;2024-01-15T01:50:02;26.40;;;10.90;;
13408;SDS011;6775;49.574;11.170;2024-01-15T01:52:31;25.23;;;11.83;;
13408;SDS011;6775;49.574;11.170;2024-01-15T01:55:00;29.87;;;12.40;;
13408;SDS011;6775;49.574;11.170;2024-01-15T01:57:31;30.50;;;11.70;;
13408;SDS011;6775;49.574;11.170;2024-01-15T02:00:02;30.53;;;11.63;;
13408;SDS011;6775;49.574;11.170;2024-01-15T02:02:33;21.37;;;11.47;;
13408;SDS011;6775;49.574;11.170;2024-01-15T02:05:03;25.00;;;10.93;;
13408;SDS011;6775;49.574;11.170;2024-01-15T02:07:34;25.33;;;12.13;;
13408;SDS011;6775;49.574;11.170;2024-01-15T02:10:03;28.00;;;12.37;;
13408;SDS011;6775;49.574;11.170;2024-01-15T02:12:32;30.17;;;12.27;;
13408;SDS011;6775;49.574;11.170;2024-01-15T02:15:00;27.03;;;13.23;;
13408;SDS011;6775;49.574;11.170;2024-01-15T02:17:30;24.80;;;10.90;;
13408;SDS011;6775;49.574;11.170;2024-01-15T02:19:58;25.03;;;12.53;;
13408;SDS011;6775;49.574;11.170;2024-01-15T02:22:27;23.37;;;10.03;;
13408;SDS011;6775;49.574;11.170;2024-01-15T02:24:56;23.70;;;9.80;;
13408;SDS011;6775;49.574;11.170;2024-01-15T02:27:25;29.10;;;11.23;;
13408;SDS011;6775;49.574;11.170;2024-01-15T02:29:53;24.50;;;11.20;;
13408;SDS011;6775;49.574;11.170;2024-01-15T02:32:22;27.73;;;12.23;;
13408;SDS011;6775;49.574;11.170;2024-01-15T02:34:50;28.10;;;11.07;;
13408;SDS011;6775;49.574;11.170;2024-01-15T02:37:19;32.37;;;12.33;;
13408;SDS011;6775;49.574;11.170;2024-01-15T02:39:47;27.80;;;11.37;;
13408;SDS011;6775;49.574;11.170;2024-01-15T02:42:16;26.33;;;10.83;;
13408;SDS011;6775;49.574;11.170;2024-01-15T02:44:45;23.43;;;10.17;;
13408;SDS011;6775;49.574;11.170;2024-01-15T02:47:14;27.80;;;11.53;;
13408;SDS011;6775;49.574;11.170;2024-01-15T02:49:42;28.77;;;11.83;;
13408;SDS011;6775;49.574;11.170;2024-01-15T02:52:11;24.20;;;10.50;;
13408;SDS011;6775;49.574;11.170;2024-01-15T02:54:39;27.20;;;10.87;;
13408;SDS011;6775;49.574;11.170;2024-01-15T02:57:07;23.60;;;11.03;;
13408;SDS011;6775;49.574;11.170;2024-01-15T02:59:37;24.80;;;11.97;;
13408;SDS011;6775;49.574;11.170;2024-01-15T03:02:05;27.97;;;11.83;;
13408;SDS011;6775;49.574;11.170;2024-01-15T03:04:33;22.07;;;11.13;;
13408;SDS011;6775;49.574;11.170;2024-01-15T03:07:01;24.33;;;10.57;;
13408;SDS011;6775;49.574;11.170;2024-01-15T03:09:29;23.40;;;10.57;;
13408;SDS011;6775;49.574;11.170;2024-01-15T03:11:58;21.97;;;10.27;;
13408;SDS011;6775;49.574;11.170;2024-01-15T03:14:26;22.93;;;10.23;;
13408;SDS011;6775;49.574;11.170;2024-01-15T03:16:55;26.67;;;11.10;;
13408;SDS011;6775;49.574;11.170;2024-01-15T03:19:23;24.17;;;9.87;;
13408;SDS011;6775;49.574;11.170;2024-01-15T03:21:52;22.53;;;9.33;;
13408;SDS011;6775;49.574;11.170;2024-01-15T03:24:21;18.47;;;8.23;;
13408;SDS011;6775;49.574;11.170;2024-01-15T03:26:49;18.77;;;8.67;;
13408;SDS011;6775;49.574;11.170;2024-01-15T03:29:17;19.53;;;9.53;;
13408;SDS011;6775;49.574;11.170;2024-01-15T03:31:45;23.77;;;9.77;;
13408;SDS011;6775;49.574;11.170;2024-01-15T03:34:15;20.07;;;9.00;;
13408;SDS011;6775;49.574;11.170;2024-01-15T03:36:43;24.33;;;9.67;;
13408;SDS011;6775;49.574;11.170;2024-01-15T03:39:12;24.27;;;11.53;;
13408;SDS011;6775;49.574;11.170;2024-01-15T03:41:40;23.03;;;10.43;;
13408;SDS011;6775;49.574;11.170;2024-01-15T03:44:08;20.67;;;9.93;;
13408;SDS011;6775;49.574;11.170;2024-01-15T03:46:36;22.63;;;8.70;;
13408;SDS011;6775;49.574;11.170;2024-01-15T03:49:04;23.17;;;10.10;;
13408;SDS011;6775;49.574;11.170;2024-01-15T03:51:34;21.87;;;9.80;;
13408;SDS011;6775;49.574;11.170;2024-01-15T03:54:02;19.93;;;9.00;;
13408;SDS011;6775;49.574;11.170;2024-01-15T03:56:30;23.53;;;9.43;;
13408;SDS011;6775;49.574;11.170;2024-01-15T03:58:59;26.10;;;10.30;;
13408;SDS011;6775;49.574;11.170;2024-01-15T04:01:27;19.83;;;9.07;;
13408;SDS011;6775;49.574;11.170;2024-01-15T04:03:55;21.00;;;9.00;;
13408;SDS011;6775;49.574;11.170;2024-01-15T04:06:24;20.80;;;9.43;;
13408;SDS011;6775;49.574;11.170;2024-01-15T04:08:53;17.40;;;9.07;;
13408;SDS011;6775;49.574;11.170;2024-01-15T04:11:22;19.17;;;8.73;;
13408;SDS011;6775;49.574;11.170;2024-01-15T04:13:50;16.90;;;8.30;;
13408;SDS011;6775;49.574;11.170;2024-01-15T04:16:18;16.47;;;7.57;;
13408;SDS011;6775;49.574;11.170;2024-01-15T04:18:46;17.30;;;8.20;;
13408;SDS011;6775;49.574;11.170;2024-01-15T04:21:16;19.07;;;9.10;;
13408;SDS011;6775;49.574;11.170;2024-01-15T04:23:45;15.07;;;8.07;;
13408;SDS011;6775;49.574;11.170;2024-01-15T04:26:14;17.60;;;9.47;;
13408;SDS011;6775;49.574;11.170;2024-01-15T04:28:42;15.50;;;8.33;;
13408;SDS011;6775;49.574;11.170;2024-01-15T04:31:19;16.20;;;7.87;;
13408;SDS011;6775;49.574;11.170;2024-01-15T04:33:50;16.53;;;8.30;;
13408;SDS011;6775;49.574;11.170;2024-01-15T04:36:18;17.23;;;7.93;;
13408;SDS011;6775;49.574;11.170;2024-01-15T04:38:46;15.10;;;8.27;;
13408;SDS011;6775;49.574;11.170;2024-01-15T04:41:16;19.17;;;8.23;;
13408;SDS011;6775;49.574;11.170;2024-01-15T04:43:44;15.77;;;7.87;;
13408;SDS011;6775;49.574;11.170;2024-01-15T04:46:13;15.87;;;7.53;;
13408;SDS011;6775;49.574;11.170;2024-01-15T04:48:41;15.80;;;7.57;;
13408;SDS011;6775;49.574;11.170;2024-01-15T04:51:10;14.60;;;8.07;;
13408;SDS011;6775;49.574;11.170;2024-01-15T04:53:38;18.67;;;8.50;;
13408;SDS011;6775;49.574;11.170;2024-01-15T04:56:06;16.90;;;8.30;;
13408;SDS011;6775;49.574;11.170;2024-01-15T04:58:36;18.43;;;8.53;;
13408;SDS011;6775;49.574;11.170;2024-01-15T05:01:04;15.87;;;7.43;;
13408;SDS011;6775;49.574;11.170;2024-01-15T05:03:32;16.77;;;8.33;;
13408;SDS011;6775;49.574;11.170;2024-01-15T05:06:00;15.70;;;7.57;;
13408;SDS011;6775;49.574;11.170;2024-01-15T05:08:29;18.67;;;7.83;;
13408;SDS011;6775;49.574;11.170;2024-01-15T05:10:57;14.83;;;7.23;;
13408;SDS011;6775;49.574;11.170;2024-01-15T05:13:25;22.27;;;13.10;;
13408;SDS011;6775;49.574;11.170;2024-01-15T05:15:55;18.03;;;10.23;;
13408;SDS011;6775;49.574;11.170;2024-01-15T05:18:23;23.03;;;11.90;;
13408;SDS011;6775;49.574;11.170;2024-01-15T05:20:52;21.83;;;10.07;;
13408;SDS011;6775;49.574;11.170;2024-01-15T05:23:20;19.90;;;8.70;;
13408;SDS011;6775;49.574;11.170;2024-01-15T05:25:48;17.50;;;7.63;;
13408;SDS011;6775;49.574;11.170;2024-01-15T05:28:16;20.53;;;8.87;;
13408;SDS011;6775;49.574;11.170;2024-01-15T05:30:44;22.43;;;8.80;;
13408;SDS011;6775;49.574;11.170;2024-01-15T05:33:14;21.27;;;8.90;;
13408;SDS011;6775;49.574;11.170;2024-01-15T05:35:43;16.67;;;7.97;;
13408;SDS011;6775;49.574;11.170;2024-01-15T05:38:11;19.10;;;8.80;;
13408;SDS011;6775;49.574;11.170;2024-01-15T05:40:39;17.83;;;8.07;;
13408;SDS011;6775;49.574;11.170;2024-01-15T05:43:07;18.97;;;7.60;;
13408;SDS011;6775;49.574;11.170;2024-01-15T05:45:37;19.07;;;8.73;;
13408;SDS011;6775;49.574;11.170;2024-01-15T05:48:10;13.87;;;7.67;;
13408;SDS011;6775;49.574;11.170;2024-01-15T05:50:41;18.40;;;8.07;;
13408;SDS011;6775;49.574;11.170;2024-01-15T05:53:09;18.67;;;8.67;;
13408;SDS011;6775;49.574;11.170;2024-01-15T05:55:37;20.47;;;8.93;;
13408;SDS011;6775;49.574;11.170;2024-01-15T05:58:05;15.13;;;6.97;;
13408;SDS011;6775;49.574;11.170;2024-01-15T06:00:34;17.07;;;7.83;;
13408;SDS011;6775;49.574;11.170;2024-01-15T06:03:05;18.37;;;7.97;;
13408;SDS011;6775;49.574;11.170;2024-01-15T06:05:32;14.57;;;7.30;;
13408;SDS011;6775;49.574;11.170;2024-01-15T06:08:02;16.43;;;7.87;;
13408;SDS011;6775;49.574;11.170;2024-01-15T06:10:30;19.27;;;8.13;;
13408;SDS011;6775;49.574;11.170;2024-01-15T06:12:58;14.40;;;6.90;;
13408;SDS011;6775;49.574;11.170;2024-01-15T06:15:27;18.13;;;8.23;;
13408;SDS011;6775;49.574;11.170;2024-01-15T06:17:55;12.00;;;6.07;;
13408;SDS011;6775;49.574;11.170;2024-01-15T06:20:23;15.97;;;7.73;;
13408;SDS011;6775;49.574;11.170;2024-01-15T06:22:51;14.30;;;7.40;;
13408;SDS011;6775;49.574;11.170;2024-01-15T06:25:21;16.43;;;6.87;;
13408;SDS011;6775;49.574;11.170;2024-01-15T06:27:49;13.07;;;7.10;;
13408;SDS011;6775;49.574;11.170;2024-01-15T06:30:17;16.63;;;7.67;;
13408;SDS011;6775;49.574;11.170;2024-01-15T06:32:46;14.17;;;7.40;;
13408;SDS011;6775;49.574;11.170;2024-01-15T06:35:14;13.63;;;6.90;;
13408;SDS011;6775;49.574;11.170;2024-01-15T06:37:44;14.90;;;7.20;;
13408;SDS011;6775;49.574;11.170;2024-01-15T06:40:13;13.83;;;6.83;;
13408;SDS011;6775;49.574;11.170;2024-01-15T06:42:42;17.13;;;8.03;;
13408;SDS011;6775;49.574;11.170;2024-01-15T06:45:10;19.83;;;7.87;;
13408;SDS011;6775;49.574;11.170;2024-01-15T06:47:39;18.47;;;7.50;;
13408;SDS011;6775;49.574;11.170;2024-01-15T06:50:08;14.70;;;7.00;;
13408;SDS011;6775;49.574;11.170;2024-01-15T06:52:36;15.90;;;7.20;;
13408;SDS011;6775;49.574;11.170;2024-01-15T06:55:05;15.80;;;7.47;;
13408;SDS011;6775;49.574;11.170;2024-01-15T06:57:34;16.67;;;7.47;;
13408;SDS011;6775;49.574;11.170;2024-01-15T07:00:04;13.67;;;7.13;;
13408;SDS011;6775;49.574;11.170;2024-01-15T07:02:35;16.80;;;7.40;;
13408;SDS011;6775;49.574;11.170;2024-01-15T07:05:03;16.97;;;8.77;;
13408;SDS011;6775;49.574;11.170;2024-01-15T07:07:32;14.13;;;7.23;;
13408;SDS011;6775;49.574;11.170;2024-01-15T07:10:00;14.90;;;6.77;;
13408;SDS011;6775;49.574;11.170;2024-01-15T07:12:29;13.07;;;6.90;;
13408;SDS011;6775;49.574;11.170;2024-01-15T07:14:58;13.63;;;6.87;;
13408;SDS011;6775;49.574;11.170;2024-01-15T07:17:27;16.03;;;7.30;;
13408;SDS011;6775;49.574;11.170;2024-01-15T07:19:55;13.73;;;6.67;;
13408;SDS011;6775;49.574;11.170;2024-01-15T07:22:23;16.57;;;8.20;;
13408;SDS011;6775;49.574;11.170;2024-01-15T07:24:52;18.20;;;7.73;;
13408;SDS011;6775;49.574;11.170;2024-01-15T07:27:21;12.27;;;7.07;;
13408;SDS011;6775;49.574;11.170;2024-01-15T07:29:49;16.47;;;7.00;;
13408;SDS011;6775;49.574;11.170;2024-01-15T07:32:18;15.93;;;7.30;;
13408;SDS011;6775;49.574;11.170;2024-01-15T07:34:48;13.87;;;7.43;;
13408;SDS011;6775;49.574;11.170;2024-01-15T07:37:16;15.10;;;6.57;;
13408;SDS011;6775;49.574;11.170;2024-01-15T07:39:44;15.70;;;7.90;;
13408;SDS011;6775;49.574;11.170;2024-01-15T07:42:13;11.43;;;6.63;;
13408;SDS011;6775;49.574;11.170;2024-01-15T07:44:41;12.83;;;6.73;;
13408;SDS011;6775;49.574;11.170;2024-01-15T07:47:09;15.27;;;7.30;;
13408;SDS011;6775;49.574;11.170;2024-01-15T07:49:38;14.20;;;7.40;;
13408;SDS011;6775;49.574;11.170;2024-01-15T07:52:07;16.47;;;7.10;;
13408;SDS011;6775;49.574;11.170;2024-01-15T07:54:36;14.97;;;7.47;;
13408;SDS011;6775;49.574;11.170;2024-01-15T07:57:04;13.43;;;6.77;;
13408;SDS011;6775;49.574;11.170;2024-01-15T07:59:32;14.03;;;6.73;;
13408;SDS011;6775;49.574;11.170;2024-01-15T08:02:02;18.67;;;7.13;;
13408;SDS011;6775;49.574;11.170;2024-01-15T08:04:30;15.73;;;7.00;;
13408;SDS011;6775;49.574;11.170;2024-01-15T08:06:59;14.87;;;7.17;;
13408;SDS011;6775;49.574;11.170;2024-01-15T08:09:27;17.73;;;7.43;;
13408;SDS011;6775;49.574;11.170;2024-01-15T08:11:56;18.40;;;8.33;;
13408;SDS011;6775;49.574;11.170;2024-01-15T08:14:24;13.10;;;7.07;;
13408;SDS011;6775;49.574;11.170;2024-01-15T08:16:52;17.23;;;7.80;;
13408;SDS011;6775;49.574;11.170;2024-01-15T08:19:21;16.10;;;6.80;;
13408;SDS011;6775;49.574;11.170;2024-01-15T08:21:49;14.57;;;7.20;;
13408;SDS011;6775;49.574;11.170;2024-01-15T08:24:17;14.53;;;7.90;;
13408;SDS011;6775;49.574;11.170;2024-01-15T08:26:47;14.50;;;7.43;;
13408;SDS011;6775;49.574;11.170;2024-01-15T08:29:15;13.30;;;6.50;;
13408;SDS011;6775;49.574;11.170;2024-01-15T08:31:45;16.07;;;7.40;;
13408;SDS011;6775;49.574;11.170;2024-01-15T08:34:13;11.73;;;6.83;;
13408;SDS011;6775;49.574;11.170;2024-01-15T08:36:41;15.87;;;7.43;;
13408;SDS011;6775;49.574;11.170;2024-01-15T08:39:09;12.83;;;6.07;;
13408;SDS011;6775;49.574;11.170;2024-01-15T08:41:38;15.87;;;7.23;;
13408;SDS011;6775;49.574;11.170;2024-01-15T08:44:07;16.23;;;6.90;;
13408;SDS011;6775;49.574;11.170;2024-01-15T08:46:35;15.90;;;7.80;;
13408;SDS011;6775;49.574;11.170;2024-01-15T08:49:03;15.50;;;7.27;;
13408;SDS011;6775;49.574;11.170;2024-01-15T08:51:32;11.57;;;6.93;;
13408;SDS011;6775;49.574;11.170;2024-01-15T08:54:00;16.00;;;7.93;;
13408;SDS011;6775;49.574;11.170;2024-01-15T08:56:28;20.20;;;8.93;;
13408;SDS011;6775;49.574;11.170;2024-01-15T08:58:56;13.67;;;8.43;;
13408;SDS011;6775;49.574;11.170;2024-01-15T09:01:26;15.80;;;7.57;;
13408;SDS011;6775;49.574;11.170;2024-01-15T09:03:55;18.93;;;9.87;;
13408;SDS011;6775;49.574;11.170;2024-01-15T09:06:23;19.93;;;10.47;;
13408;SDS011;6775;49.574;11.170;2024-01-15T09:08:51;15.20;;;7.57;;
13408;SDS011;6775;49.574;11.170;2024-01-15T09:11:19;17.47;;;8.13;;
13408;SDS011;6775;49.574;11.170;2024-01-15T09:13:47;17.13;;;8.53;;
13408;SDS011;6775;49.574;11.170;2024-01-15T09:16:15;13.30;;;7.13;;
13408;SDS011;6775;49.574;11.170;2024-01-15T09:18:45;15.50;;;9.40;;
13408;SDS011;6775;49.574;11.170;2024-01-15T09:21:13;15.90;;;8.30;;
13408;SDS011;6775;49.574;11.170;2024-01-15T09:23:42;14.80;;;9.00;;
13408;SDS011;6775;49.574;11.170;2024-01-15T09:26:10;13.87;;;7.47;;
13408;SDS011;6775;49.574;11.170;2024-01-15T09:28:38;12.43;;;7.77;;
13408;SDS011;6775;49.574;11.170;2024-01-15T09:31:06;17.43;;;7.93;;
13408;SDS011;6775;49.574;11.170;2024-01-15T09:33:35;14.20;;;7.33;;
13408;SDS011;6775;49.574;11.170;2024-01-15T09:36:05;17.10;;;8.00;;
13408;SDS011;6775;49.574;11.170;2024-01-15T09:38:33;13.23;;;7.40;;
13408;SDS011;6775;49.574;11.170;2024-01-15T09:41:02;12.97;;;7.37;;
13408;SDS011;6775;49.574;11.170;2024-01-15T09:43:32;12.00;;;7.90;;
13408;SDS011;6775;49.574;11.170;2024-01-15T09:46:00;16.93;;;8.20;;
13408;SDS011;6775;49.574;11.170;2024-01-15T09:48:29;14.17;;;8.47;;
13408;SDS011;6775;49.574;11.170;2024-01-15T09:51:01;15.10;;;8.70;;
13408;SDS011;6775;49.574;11.170;2024-01-15T09:53:31;15.00;;;8.13;;
13408;SDS011;6775;49.574;11.170;2024-01-15T09:56:00;15.73;;;7.70;;
13408;SDS011;6775;49.574;11.170;2024-01-15T09:58:29;14.93;;;6.97;;
13408;SDS011;6775;49.574;11.170;2024-01-15T10:00:58;12.13;;;6.50;;
13408;SDS011;6775;49.574;11.170;2024-01-15T10:03:33;18.80;;;7.70;;
13408;SDS011;6775;49.574;11.170;2024-01-15T10:06:02;11.40;;;7.13;;
13408;SDS011;6775;49.574;11.170;2024-01-15T10:08:33;14.73;;;7.73;;
13408;SDS011;6775;49.574;11.170;2024-01-15T10:11:03;15.03;;;8.23;;
13408;SDS011;6775;49.574;11.170;2024-01-15T10:13:32;14.80;;;7.50;;
13408;SDS011;6775;49.574;11.170;2024-01-15T10:16:01;14.93;;;7.63;;
13408;SDS011;6775;49.574;11.170;2024-01-15T10:18:30;15.17;;;7.97;;
13408;SDS011;6775;49.574;11.170;2024-01-15T10:20:58;12.07;;;8.57;;
13408;SDS011;6775;49.574;11.170;2024-01-15T10:23:27;14.23;;;7.90;;
13408;SDS011;6775;49.574;11.170;2024-01-15T10:25:57;12.83;;;6.93;;
13408;SDS011;6775;49.574;11.170;2024-01-15T10:28:26;15.27;;;7.07;;
13408;SDS011;6775;49.574;11.170;2024-01-15T10:30:56;15.60;;;7.80;;
13408;SDS011;6775;49.574;11.170;2024-01-15T10:33:27;13.27;;;7.00;;
13408;SDS011;6775;49.574;11.170;2024-01-15T10:35:56;14.20;;;7.40;;
13408;SDS011;6775;49.574;11.170;2024-01-15T10:38:27;11.70;;;6.93;;
13408;SDS011;6775;49.574;11.170;2024-01-15T10:40:55;13.47;;;6.97;;
13408;SDS011;6775;49.574;11.170;2024-01-15T10:43:25;11.63;;;7.10;;
13408;SDS011;6775;49.574;11.170;2024-01-15T10:45:55;12.53;;;6.97;;
13408;SDS011;6775;49.574;11.170;2024-01-15T10:48:23;11.43;;;5.87;;
13408;SDS011;6775;49.574;11.170;2024-01-15T10:50:54;12.07;;;6.40;;
13408;SDS011;6775;49.574;11.170;2024-01-15T10:53:24;11.83;;;6.87;;
13408;SDS011;6775;49.574;11.170;2024-01-15T10:55:52;10.83;;;6.30;;
13408;SDS011;6775;49.574;11.170;2024-01-15T10:58:22;12.60;;;6.80;;
13408;SDS011;6775;49.574;11.170;2024-01-15T11:00:51;12.83;;;6.97;;
13408;SDS011;6775;49.574;11.170;2024-01-15T11:03:20;14.87;;;7.00;;
13408;SDS011;6775;49.574;11.170;2024-01-15T11:05:49;11.70;;;7.13;;
13408;SDS011;6775;49.574;11.170;2024-01-15T11:08:17;12.27;;;6.90;;
13408;SDS011;6775;49.574;11.170;2024-01-15T11:10:46;10.97;;;6.33;;
13408;SDS011;6775;49.574;11.170;2024-01-15T11:13:19;10.17;;;6.57;;
13408;SDS011;6775;49.574;11.170;2024-01-15T11:15:54;13.33;;;7.17;;
13408;SDS011;6775;49.574;11.170;2024-01-15T11:18:23;12.30;;;6.27;;
13408;SDS011;6775;49.574;11.170;2024-01-15T11:23:52;15.03;;;7.50;;
13408;SDS011;6775;49.574;11.170;2024-01-15T11:26:31;10.80;;;6.70;;
13408;SDS011;6775;49.574;11.170;2024-01-15T11:29:04;13.90;;;8.00;;
13408;SDS011;6775;49.574;11.170;2024-01-15T11:37:26;16.63;;;9.17;;
13408;SDS011;6775;49.574;11.170;2024-01-15T11:40:00;14.97;;;8.10;;
13408;SDS011;6775;49.574;11.170;2024-01-15T11:42:31;14.63;;;8.30;;
13408;SDS011;6775;49.574;11.170;2024-01-15T11:45:00;14.07;;;7.53;;
13408;SDS011;6775;49.574;11.170;2024-01-15T11:47:52;12.43;;;8.03;;
13408;SDS011;6775;49.574;11.170;2024-01-15T11:50:42;13.67;;;7.20;;
13408;SDS011;6775;49.574;11.170;2024-01-15T11:53:25;13.03;;;7.00;;
13408;SDS011;6775;49.574;11.170;2024-01-15T11:56:02;15.83;;;8.23;;
13408;SDS011;6775;49.574;11.170;2024-01-15T11:58:34;21.03;;;11.00;;
13408;SDS011;6775;49.574;11.170;2024-01-15T12:01:05;13.17;;;8.80;;
13408;SDS011;6775;49.574;11.170;2024-01-15T12:03:33;16.20;;;8.33;;
13408;SDS011;6775;49.574;11.170;2024-01-15T12:06:01;12.83;;;8.27;;
13408;SDS011;6775;49.574;11.170;2024-01-15T12:08:33;18.63;;;8.17;;
13408;SDS011;6775;49.574;11.170;2024-01-15T12:11:03;12.57;;;7.07;;
13408;SDS011;6775;49.574;11.170;2024-01-15T12:13:36;13.40;;;7.80;;
13408;SDS011;6775;49.574;11.170;2024-01-15T12:16:05;13.33;;;7.03;;
13408;SDS011;6775;49.574;11.170;2024-01-15T12:18:34;14.67;;;8.17;;
13408;SDS011;6775;49.574;11.170;2024-01-15T12:21:03;18.50;;;9.57;;
13408;SDS011;6775;49.574;11.170;2024-01-15T12:23:33;13.00;;;8.20;;
13408;SDS011;6775;49.574;11.170;2024-01-15T12:26:01;11.13;;;7.10;;
13408;SDS011;6775;49.574;11.170;2024-01-15T12:28:30;12.73;;;7.43;;
13408;SDS011;6775;49.574;11.170;2024-01-15T12:30:58;11.83;;;6.87;;
13408;SDS011;6775;49.574;11.170;2024-01-15T12:33:32;9.73;;;6.10;;
13408;SDS011;6775;49.574;11.170;2024-01-15T12:36:01;11.07;;;6.73;;
13408;SDS011;6775;49.574;11.170;2024-01-15T12:38:31;9.80;;;6.53;;
13408;SDS011;6775;49.574;11.170;2024-01-15T12:41:00;12.57;;;5.97;;
13408;SDS011;6775;49.574;11.170;2024-01-15T12:43:28;10.53;;;6.27;;
13408;SDS011;6775;49.574;11.170;2024-01-15T12:45:56;12.77;;;6.60;;
13408;SDS011;6775;49.574;11.170;2024-01-15T12:48:24;12.70;;;6.77;;
13408;SDS011;6775;49.574;11.170;2024-01-15T12:50:54;10.90;;;6.67;;
13408;SDS011;6775;49.574;11.170;2024-01-15T12:53:23;10.43;;;6.27;;
13408;SDS011;6775;49.574;11.170;2024-01-15T12:55:51;9.73;;;6.70;;
13408;SDS011;6775;49.574;11.170;2024-01-15T12:58:19;11.37;;;6.73;;
13408;SDS011;6775;49.574;11.170;2024-01-15T13:00:47;17.27;;;11.97;;
13408;SDS011;6775;49.574;11.170;2024-01-15T13:03:16;13.00;;;9.53;;
13408;SDS011;6775;49.574;11.170;2024-01-15T13:05:44;10.40;;;7.20;;
13408;SDS011;6775;49.574;11.170;2024-01-15T13:08:14;11.77;;;8.50;;
13408;SDS011;6775;49.574;11.170;2024-01-15T13:10:42;14.63;;;9.13;;
13408;SDS011;6775;49.574;11.170;2024-01-15T13:13:10;13.73;;;8.47;;
13408;SDS011;6775;49.574;11.170;2024-01-15T13:15:39;11.03;;;7.00;;
13408;SDS011;6775;49.574;11.170;2024-01-15T13:18:08;10.87;;;6.17;;
13408;SDS011;6775;49.574;11.170;2024-01-15T13:20:36;9.30;;;6.07;;
13408;SDS011;6775;49.574;11.170;2024-01-15T13:23:05;10.70;;;5.93;;
13408;SDS011;6775;49.574;11.170;2024-01-15T13:25:34;10.07;;;6.20;;
13408;SDS011;6775;49.574;11.170;2024-01-15T13:28:04;11.17;;;5.67;;
13408;SDS011;6775;49.574;11.170;2024-01-15T13:30:34;10.07;;;6.17;;
13408;SDS011;6775;49.574;11.170;2024-01-15T13:33:02;9.43;;;5.63;;
13408;SDS011;6775;49.574;11.170;2024-01-15T13:35:31;10.23;;;5.87;;
13408;SDS011;6775;49.574;11.170;2024-01-15T13:37:59;9.53;;;5.60;;
13408;SDS011;6775;49.574;11.170;2024-01-15T13:40:28;10.03;;;5.60;;
13408;SDS011;6775;49.574;11.170;2024-01-15T13:42:57;11.70;;;6.53;;
13408;SDS011;6775;49.574;11.170;2024-01-15T13:45:25;8.77;;;6.10;;
13408;SDS011;6775;49.574;11.170;2024-01-15T13:47:53;9.43;;;5.67;;
13408;SDS011;6775;49.574;11.170;2024-01-15T13:50:21;9.67;;;5.73;;
13408;SDS011;6775;49.574;11.170;2024-01-15T13:52:51;9.77;;;5.50;;
13408;SDS011;6775;49.574;11.170;2024-01-15T13:55:19;6.10;;;4.73;;
13408;SDS011;6775;49.574;11.170;2024-01-15T13:57:47;7.47;;;5.37;;
13408;SDS011;6775;49.574;11.170;2024-01-15T14:00:17;9.47;;;5.33;;
13408;SDS011;6775;49.574;11.170;2024-01-15T14:02:46;9.20;;;5.23;;
13408;SDS011;6775;49.574;11.170;2024-01-15T14:05:15;8.70;;;5.63;;
13408;SDS011;6775;49.574;11.170;2024-01-15T14:07:43;8.10;;;5.87;;
13408;SDS011;6775;49.574;11.170;2024-01-15T14:10:11;9.43;;;5.07;;
13408;SDS011;6775;49.574;11.170;2024-01-15T14:12:39;7.60;;;4.83;;
13408;SDS011;6775;49.574;11.170;2024-01-15T14:15:08;8.27;;;5.07;;
13408;SDS011;6775;49.574;11.170;2024-01-15T14:17:38;9.50;;;4.97;;
13408;SDS011;6775;49.574;11.170;2024-01-15T14:20:07;6.90;;;4.83;;
13408;SDS011;6775;49.574;11.170;2024-01-15T14:22:36;8.23;;;4.63;;
13408;SDS011;6775;49.574;11.170;2024-01-15T14:25:05;7.63;;;4.03;;
13408;SDS011;6775;49.574;11.170;2024-01-15T14:27:34;6.57;;;4.00;;
13408;SDS011;6775;49.574;11.170;2024-01-15T14:30:02;6.47;;;4.63;;
13408;SDS011;6775;49.574;11.170;2024-01-15T14:32:34;6.73;;;4.63;;
13408;SDS011;6775;49.574;11.170;2024-01-15T14:35:04;5.97;;;4.10;;
13408;SDS011;6775;49.574;11.170;2024-01-15T14:37:34;7.80;;;5.13;;
13408;SDS011;6775;49.574;11.170;2024-01-15T14:40:03;6.77;;;4.80;;
13408;SDS011;6775;49.574;11.170;2024-01-15T14:42:34;7.77;;;4.80;;
13408;SDS011;6775;49.574;11.170;2024-01-15T14:45:03;6.73;;;4.70;;
13408;SDS011;6775;49.574;11.170;2024-01-15T14:47:38;7.87;;;4.90;;
13408;SDS011;6775;49.574;11.170;2024-01-15T14:50:09;7.13;;;4.40;;
13408;SDS011;6775;49.574;11.170;2024-01-15T14:52:38;7.10;;;4.60;;